Time;durP1;ratioP1;P1;durP2;ratioP2;P2;SDS_P1;SDS_P2;PMS_P1;PMS_P2;Temp;Humidity;BMP_temperature;BMP_pressure;BME280_temperature;BME280_humidity;BME280_pressure;Samples;Min_cycle;Max_cycle;Signal;HPM_P1;HPM_P2
2024/01/11 00:02:14;;;;;;;;;;;-0.60;99.90;;;;;;2617911;47;19947;-75
2024/01/11 00:04:44;;;;;;;;;;;-0.70;99.90;;;;;;2617004;54;19946;-75
2024/01/11 00:07:14;;;;;;;;;;;-0.70;99.90;;;;;;2617696;54;19956;-74
2024/01/11 00:09:44;;;;;;;;;;;-0.70;99.90;;;;;;2614485;47;19970;-74
2024/01/11 00:12:14;;;;;;;;;;;-0.70;99.90;;;;;;2621396;54;19939;-73
2024/01/11 00:14:46;;;;;;;;;;;-0.70;99.90;;;;;;2624138;47;19945;-73
2024/01/11 00:17:16;;;;;;;;;;;-0.70;99.90;;;;;;2621629;47;20027;-74
2024/01/11 00:19:45;;;;;;;;;;;-0.70;99.90;;;;;;2618577;54;19946;-75
2024/01/11 00:22:15;;;;;;;;;;;-0.70;99.90;;;;;;2617554;54;19938;-74
2024/01/11 00:24:45;;;;;;;;;;;-0.80;99.90;;;;;;2616501;54;19945;-74
2024/01/11 00:27:15;;;;;;;;;;;-0.80;99.90;;;;;;2617584;39;20342;-74
2024/01/11 00:29:47;;;;;;;;;;;-0.80;99.90;;;;;;2615931;54;19951;-74
2024/01/11 00:32:16;;;;;;;;;;;-0.80;99.90;;;;;;2617280;54;19946;-73
2024/01/11 00:34:46;;;;;;;;;;;-0.80;99.90;;;;;;2618135;54;20457;-75
2024/01/11 00:37:16;;;;;;;;;;;-0.80;99.90;;;;;;2617328;47;19945;-76
2024/01/11 00:39:46;;;;;;;;;;;-0.80;99.90;;;;;;2616703;47;20034;-74
2024/01/11 00:42:16;;;;;;;;;;;-0.80;99.90;;;;;;2618575;51;19971;-74
2024/01/11 00:44:49;;;;;;;;;;;-0.70;99.90;;;;;;2618362;54;20895;-73
2024/01/11 00:47:19;;;;;;;;;;;-0.70;99.90;;;;;;2618001;46;19939;-75
2024/01/11 00:49:49;;;;;;;;;;;-0.70;99.90;;;;;;2618268;54;19938;-74
2024/01/11 00:52:18;;;;;;;;;;;-0.80;99.90;;;;;;2617827;54;19985;-74
2024/01/11 00:54:48;;;;;;;;;;;-0.80;99.90;;;;;;2617639;47;19947;-74
2024/01/11 00:57:18;;;;;;;;;;;-0.80;99.90;;;;;;2618293;54;19956;-74
2024/01/11 00:59:53;;;;;;;;;;;-0.70;99.90;;;;;;2617828;54;19973;-75
2024/01/11 01:02:22;;;;;;;;;;;-0.70;99.90;;;;;;2617568;54;19953;-73
2024/01/11 01:04:52;;;;;;;;;;;-0.70;99.90;;;;;;2618634;47;19951;-74
2024/01/11 01:07:22;;;;;;;;;;;-0.70;99.90;;;;;;2620331;54;19939;-74
2024/01/11 01:09:51;;;;;;;;;;;-0.80;99.90;;;;;;2624516;54;19945;-73
2024/01/11 01:12:21;;;;;;;;;;;-0.80;99.90;;;;;;2625061;54;20015;-75
2024/01/11 01:14:53;;;;;;;;;;;-0.80;99.90;;;;;;2625183;54;19946;-74
2024/01/11 01:17:23;;;;;;;;;;;-0.80;99.90;;;;;;2622511;46;20005;-74
2024/01/11 01:19:53;;;;;;;;;;;-0.90;99.90;;;;;;2618413;54;19946;-74
2024/01/11 01:22:22;;;;;;;;;;;-0.90;99.90;;;;;;2618152;54;19938;-74
2024/01/11 01:24:52;;;;;;;;;;;-0.90;99.90;;;;;;2616930;54;19954;-74
2024/01/11 01:27:22;;;;;;;;;;;-0.90;99.90;;;;;;2618021;54;19951;-74
2024/01/11 01:29:55;;;;;;;;;;;-1.00;99.90;;;;;;2617715;47;19953;-74
2024/01/11 01:32:24;;;;;;;;;;;-1.00;99.90;;;;;;2618451;47;19947;-75
2024/01/11 01:34:54;;;;;;;;;;;-1.00;99.90;;;;;;2620543;54;19954;-73
2024/01/11 01:37:24;;;;;;;;;;;-1.10;99.90;;;;;;2620347;54;19985;-74
2024/01/11 01:39:53;;;;;;;;;;;-1.00;99.90;;;;;;2618033;54;19953;-73
2024/01/11 01:42:23;;;;;;;;;;;-1.10;99.90;;;;;;2625610;54;19950;-73
2024/01/11 01:44:55;;;;;;;;;;;-1.10;99.90;;;;;;2619566;54;19939;-74
2024/01/11 01:47:25;;;;;;;;;;;-1.10;99.90;;;;;;2618689;39;20333;-75
2024/01/11 01:49:55;;;;;;;;;;;-1.10;99.90;;;;;;2619368;47;19945;-74
2024/01/11 01:52:26;;;;;;;;;;;-1.10;99.90;;;;;;2618627;47;19957;-74
2024/01/11 01:54:56;;;;;;;;;;;-1.10;99.90;;;;;;2618351;54;19954;-74
2024/01/11 01:57:25;;;;;;;;;;;-1.10;99.90;;;;;;2620557;54;19962;-74
2024/01/11 01:59:58;;;;;;;;;;;-1.10;99.90;;;;;;2624962;54;19938;-75
2024/01/11 02:02:29;;;;;;;;;;;-1.10;99.90;;;;;;2624601;54;20175;-74
2024/01/11 02:04:59;;;;;;;;;;;-1.10;99.90;;;;;;2619555;54;19947;-74
2024/01/11 02:07:29;;;;;;;;;;;-1.10;99.90;;;;;;2620271;54;19958;-76
2024/01/11 02:09:59;;;;;;;;;;;-1.10;99.90;;;;;;2620485;39;20419;-75
2024/01/11 02:12:28;;;;;;;;;;;-1.10;99.90;;;;;;2620327;54;19950;-74
2024/01/11 02:15:03;;;;;;;;;;;-1.10;99.90;;;;;;2620939;54;19955;-75
2024/01/11 02:17:32;;;;;;;;;;;-1.10;99.90;;;;;;2620328;47;20405;-74
2024/01/11 02:20:03;;;;;;;;;;;-1.10;99.90;;;;;;2619913;47;19958;-74
2024/01/11 02:22:34;;;;;;;;;;;-1.10;99.90;;;;;;2619960;54;19993;-74
2024/01/11 02:25:07;;;;;;;;;;;-1.10;99.90;;;;;;2620145;54;19955;-75
2024/01/11 02:27:47;;;;;;;;;;;-1.20;99.90;;;;;;2620182;54;19958;-75
2024/01/11 02:30:16;;;;;;;;;;;-1.20;99.90;;;;;;2619789;47;20046;-74
2024/01/11 02:32:47;;;;;;;;;;;-1.20;99.90;;;;;;2620775;54;19939;-75
2024/01/11 02:35:17;;;;;;;;;;;-1.20;99.90;;;;;;2620211;54;19951;-73
2024/01/11 02:37:48;;;;;;;;;;;-1.20;99.90;;;;;;2620645;47;19951;-74
2024/01/11 02:40:21;;;;;;;;;;;-1.20;99.90;;;;;;2620016;54;19939;-75
2024/01/11 02:42:51;;;;;;;;;;;-1.20;99.90;;;;;;2620854;54;19946;-74
2024/01/11 02:45:20;;;;;;;;;;;-1.20;99.90;;;;;;2620335;54;20441;-74
2024/01/11 02:47:50;;;;;;;;;;;-1.30;99.90;;;;;;2619378;54;19950;-74
2024/01/11 02:50:20;;;;;;;;;;;-1.30;99.90;;;;;;2619894;54;19953;-76
2024/01/11 02:52:50;;;;;;;;;;;-1.30;99.90;;;;;;2620057;47;20651;-74
2024/01/11 02:55:22;;;;;;;;;;;-1.30;99.90;;;;;;2619775;54;19947;-74
2024/01/11 02:57:52;;;;;;;;;;;-1.30;99.90;;;;;;2620502;47;20425;-74
2024/01/11 03:00:21;;;;;;;;;;;-1.30;99.90;;;;;;2621382;47;19950;-74
2024/01/11 03:02:51;;;;;;;;;;;-1.40;99.90;;;;;;2622738;54;19947;-74
2024/01/11 03:05:21;;;;;;;;;;;-1.40;99.90;;;;;;2621387;39;20365;-74
2024/01/11 03:07:50;;;;;;;;;;;-1.40;99.90;;;;;;2620808;47;19939;-74
2024/01/11 03:10:23;;;;;;;;;;;-1.40;99.90;;;;;;2620759;54;19972;-74
2024/01/11 03:12:53;;;;;;;;;;;-1.40;99.90;;;;;;2621755;54;19938;-74
2024/01/11 03:15:23;;;;;;;;;;;-1.40;99.90;;;;;;2620357;47;19939;-74
2024/01/11 03:17:52;;;;;;;;;;;-1.40;99.90;;;;;;2619018;47;20469;-74
2024/01/11 03:20:24;;;;;;;;;;;-1.50;99.90;;;;;;2621079;54;19966;-74
2024/01/11 03:22:54;;;;;;;;;;;-1.50;99.90;;;;;;2621489;54;20457;-74
2024/01/11 03:25:26;;;;;;;;;;;-1.50;99.90;;;;;;2620814;54;19953;-76
2024/01/11 03:27:56;;;;;;;;;;;-0.20;99.90;;;;;;2623533;54;19946;-73
2024/01/11 03:30:26;;;;;;;;;;;-1.50;99.90;;;;;;2625400;47;20010;-74
2024/01/11 03:32:55;;;;;;;;;;;-1.50;99.90;;;;;;2624891;54;19985;-75
2024/01/11 03:35:25;;;;;;;;;;;-1.50;99.90;;;;;;2623234;54;20018;-74
2024/01/11 03:37:55;;;;;;;;;;;-1.50;99.90;;;;;;2621305;54;19946;-74
2024/01/11 03:40:27;;;;;;;;;;;-1.50;99.90;;;;;;2620977;47;19950;-74
2024/01/11 03:42:57;;;;;;;;;;;-1.60;99.90;;;;;;2621319;54;19950;-73
2024/01/11 03:45:24;;;;;;;;;;;-1.60;99.90;;;;;;2620790;54;19953;-75
2024/01/11 03:47:54;;;;;;;;;;;-1.60;99.90;;;;;;2621336;47;19951;-73
2024/01/11 03:50:23;;;;;;;;;;;-1.60;99.90;;;;;;2621690;46;19985;-74
2024/01/11 03:52:53;;;;;;;;;;;-1.60;99.90;;;;;;2625288;47;19943;-75
2024/01/11 03:55:23;;;;;;;;;;;-1.60;99.90;;;;;;2621108;47;19950;-78
2024/01/11 03:57:55;;;;;;;;;;;-1.60;99.90;;;;;;2621174;54;19947;-74
2024/01/11 04:00:25;;;;;;;;;;;-1.50;99.90;;;;;;2620315;54;19946;-74
2024/01/11 04:02:55;;;;;;;;;;;-1.60;99.90;;;;;;2621049;39;20351;-74
2024/01/11 04:05:24;;;;;;;;;;;-1.60;99.90;;;;;;2620305;47;19947;-75
2024/01/11 04:07:54;;;;;;;;;;;-1.70;99.90;;;;;;2621530;47;20037;-75
2024/01/11 04:10:24;;;;;;;;;;;-1.70;99.90;;;;;;2624672;54;19946;-74
2024/01/11 04:12:56;;;;;;;;;;;-1.80;99.90;;;;;;2625776;54;20006;-75
2024/01/11 04:15:26;;;;;;;;;;;-1.70;99.90;;;;;;2627907;54;20038;-75
2024/01/11 04:17:55;;;;;;;;;;;-1.70;99.90;;;;;;2627767;47;19982;-75
2024/01/11 04:20:26;;;;;;;;;;;-1.70;99.90;;;;;;2622458;47;19943;-74
2024/01/11 04:22:55;;;;;;;;;;;-1.70;99.90;;;;;;2621937;54;19945;-74
2024/01/11 04:25:25;;;;;;;;;;;-1.80;99.90;;;;;;2622902;46;19965;-73
2024/01/11 04:27:57;;;;;;;;;;;-1.80;99.90;;;;;;2629006;47;19977;-74
2024/01/11 04:30:27;;;;;;;;;;;-1.80;99.90;;;;;;2624064;54;19953;-75
2024/01/11 04:32:57;;;;;;;;;;;-1.80;99.90;;;;;;2622682;47;19990;-75
2024/01/11 04:35:27;;;;;;;;;;;-1.60;99.90;;;;;;2622012;47;20178;-75
2024/01/11 04:37:56;;;;;;;;;;;-1.70;99.90;;;;;;2620271;54;20471;-74
2024/01/11 04:40:26;;;;;;;;;;;-1.70;99.90;;;;;;2622613;54;19947;-74
2024/01/11 04:42:58;;;;;;;;;;;-1.80;99.90;;;;;;2621710;54;19969;-73
2024/01/11 04:45:28;;;;;;;;;;;-1.70;99.90;;;;;;2620090;54;19947;-74
2024/01/11 04:47:58;;;;;;;;;;;-1.70;99.90;;;;;;2620220;54;19946;-73
2024/01/11 04:50:28;;;;;;;;;;;-1.80;99.90;;;;;;2616664;54;19954;-73
2024/01/11 04:52:58;;;;;;;;;;;-1.80;99.90;;;;;;2617504;47;19968;-73
2024/01/11 04:55:27;;;;;;;;;;;-1.90;99.90;;;;;;2617818;54;19989;-74
2024/01/11 04:58:00;;;;;;;;;;;-1.90;99.90;;;;;;2618389;47;19953;-74
2024/01/11 05:00:29;;;;;;;;;;;-1.90;99.90;;;;;;2618071;54;19953;-74
2024/01/11 05:02:59;;;;;;;;;;;-1.80;99.90;;;;;;2617313;47;19946;-74
2024/01/11 05:05:30;;;;;;;;;;;-1.90;99.90;;;;;;2617006;46;19939;-74
2024/01/11 05:08:00;;;;;;;;;;;-1.90;99.90;;;;;;2616017;47;20085;-73
2024/01/11 05:10:30;;;;;;;;;;;-1.90;99.90;;;;;;2616232;54;19953;-73
2024/01/11 05:13:02;;;;;;;;;;;-2.00;99.90;;;;;;2616686;54;19947;-74
2024/01/11 05:15:31;;;;;;;;;;;-2.00;99.90;;;;;;2617356;54;21052;-74
2024/01/11 05:18:15;;;;;;;;;;;-2.00;99.90;;;;;;2617114;47;19949;-74
2024/01/11 05:20:45;;;;;;;;;;;-2.00;99.90;;;;;;2617359;47;19946;-76
2024/01/11 05:23:14;;;;;;;;;;;-2.00;99.90;;;;;;2618841;54;19954;-73
2024/01/11 05:25:44;;;;;;;;;;;-2.00;99.90;;;;;;2621847;47;20051;-75
2024/01/11 05:28:16;;;;;;;;;;;-2.00;99.90;;;;;;2620635;54;19938;-75
2024/01/11 05:30:46;;;;;;;;;;;-2.00;99.90;;;;;;2618554;54;19939;-74
2024/01/11 05:33:16;;;;;;;;;;;-1.90;99.90;;;;;;2617576;54;19954;-75
2024/01/11 05:35:45;;;;;;;;;;;-1.90;99.90;;;;;;2617540;47;19946;-76
2024/01/11 05:38:15;;;;;;;;;;;-1.90;99.90;;;;;;2618993;47;20700;-74
2024/01/11 05:40:45;;;;;;;;;;;-1.90;99.90;;;;;;2618115;54;19993;-74
2024/01/11 05:43:17;;;;;;;;;;;-1.90;99.90;;;;;;2619355;54;19939;-75
2024/01/11 05:45:47;;;;;;;;;;;-1.90;99.90;;;;;;2618485;54;19939;-76
2024/01/11 05:48:17;;;;;;;;;;;-1.90;99.90;;;;;;2619411;54;19946;-75
2024/01/11 05:50:47;;;;;;;;;;;-1.90;99.90;;;;;;2622663;51;19943;-75
2024/01/11 05:53:20;;;;;;;;;;;-1.80;99.90;;;;;;2620699;46;20012;-74
2024/01/11 05:55:50;;;;;;;;;;;-1.90;99.90;;;;;;2617219;47;19940;-75
2024/01/11 05:58:26;;;;;;;;;;;-1.90;99.90;;;;;;2617598;54;19947;-74
2024/01/11 06:00:55;;;;;;;;;;;-1.90;99.90;;;;;;2619892;54;19953;-74
2024/01/11 06:03:25;;;;;;;;;;;-2.00;99.90;;;;;;2622466;47;19950;-74
2024/01/11 06:05:55;;;;;;;;;;;-2.00;99.90;;;;;;2618307;39;20356;-75
2024/01/11 06:08:24;;;;;;;;;;;-2.00;99.90;;;;;;2618593;54;20425;-75
2024/01/11 06:10:54;;;;;;;;;;;-2.00;99.90;;;;;;2617947;54;20001;-73
2024/01/11 06:13:27;;;;;;;;;;;-2.10;99.90;;;;;;2618209;54;20046;-73
2024/01/11 06:15:57;;;;;;;;;;;-2.10;99.90;;;;;;2617176;54;19939;-73
2024/01/11 06:18:26;;;;;;;;;;;-2.20;99.90;;;;;;2618429;54;19946;-74
2024/01/11 06:20:57;;;;;;;;;;;-2.20;99.90;;;;;;2617807;39;20093;-74
2024/01/11 06:23:27;;;;;;;;;;;-2.30;99.90;;;;;;2618641;54;20593;-75
2024/01/11 06:25:57;;;;;;;;;;;-2.30;99.90;;;;;;2616984;47;19954;-74
2024/01/11 06:28:29;;;;;;;;;;;-2.20;99.90;;;;;;2617506;54;20453;-74
2024/01/11 06:31:01;;;;;;;;;;;-2.30;99.90;;;;;;2617088;47;19947;-74
2024/01/11 06:33:32;;;;;;;;;;;-2.20;99.90;;;;;;2617446;47;19961;-73
2024/01/11 06:36:02;;;;;;;;;;;-2.20;99.90;;;;;;2617875;54;20453;-74
2024/01/11 06:38:32;;;;;;;;;;;-2.20;99.90;;;;;;2618369;54;19946;-75
2024/01/11 06:41:01;;;;;;;;;;;-2.20;99.90;;;;;;2620125;54;20069;-75
2024/01/11 06:43:34;;;;;;;;;;;-2.20;99.90;;;;;;2625519;47;19938;-75
2024/01/11 06:46:09;;;;;;;;;;;-2.20;99.90;;;;;;2618249;54;19946;-75
2024/01/11 06:48:38;;;;;;;;;;;-2.20;99.90;;;;;;2619155;54;19953;-74
2024/01/11 06:51:08;;;;;;;;;;;-2.30;99.90;;;;;;2618143;47;19950;-76
2024/01/11 06:53:39;;;;;;;;;;;-2.20;99.90;;;;;;2618594;47;19939;-76
2024/01/11 06:56:15;;;;;;;;;;;-2.20;99.90;;;;;;2617910;54;19951;-76
2024/01/11 06:58:49;;;;;;;;;;;-2.20;99.90;;;;;;2618108;54;19954;-76
2024/01/11 07:01:19;;;;;;;;;;;-2.20;99.90;;;;;;2618352;47;19958;-74
2024/01/11 07:03:49;;;;;;;;;;;-2.10;99.90;;;;;;2618538;47;20002;-74
2024/01/11 07:06:19;;;;;;;;;;;-2.10;99.90;;;;;;2618192;54;20014;-73
2024/01/11 07:08:49;;;;;;;;;;;-2.20;99.90;;;;;;2619350;39;20384;-74
2024/01/11 07:11:19;;;;;;;;;;;-2.00;99.90;;;;;;2618517;54;19943;-74
2024/01/11 07:13:51;;;;;;;;;;;-2.10;99.90;;;;;;2622144;39;20391;-73
2024/01/11 07:16:21;;;;;;;;;;;-2.10;99.90;;;;;;2621671;54;19954;-74
2024/01/11 07:18:50;;;;;;;;;;;-1.90;99.90;;;;;;2619379;47;19946;-73
2024/01/11 07:21:23;;;;;;;;;;;-2.10;99.90;;;;;;2623646;54;19978;-73
2024/01/11 07:23:52;;;;;;;;;;;-2.10;99.90;;;;;;2627556;54;20026;-73
2024/01/11 07:26:22;;;;;;;;;;;-1.90;99.90;;;;;;2626483;47;19938;-73
2024/01/11 07:28:56;;;;;;;;;;;-2.10;99.90;;;;;;2623445;54;20057;-74
2024/01/11 07:31:26;;;;;;;;;;;-2.10;99.90;;;;;;2619416;54;19962;-74
2024/01/11 07:33:56;;;;;;;;;;;-2.10;99.90;;;;;;2619085;47;19993;-74
2024/01/11 07:36:26;;;;;;;;;;;-2.10;99.90;;;;;;2618999;39;20353;-74
2024/01/11 07:38:55;;;;;;;;;;;-2.00;99.90;;;;;;2618289;54;19955;-74
2024/01/11 07:41:25;;;;;;;;;;;-1.80;99.90;;;;;;2619425;47;19939;-74
2024/01/11 07:43:59;;;;;;;;;;;-2.00;99.90;;;;;;2622801;47;19946;-75
2024/01/11 07:46:29;;;;;;;;;;;-2.00;99.90;;;;;;2624943;54;19954;-74
2024/01/11 07:49:10;;;;;;;;;;;-1.90;99.90;;;;;;2624939;46;19946;-74
2024/01/11 07:51:41;;;;;;;;;;;-1.90;99.90;;;;;;2624571;47;19945;-74
2024/01/11 07:54:11;;;;;;;;;;;-1.80;99.90;;;;;;2624210;47;19954;-74
2024/01/11 07:56:40;;;;;;;;;;;-1.80;99.90;;;;;;2622865;39;20326;-74
2024/01/11 07:59:14;;;;;;;;;;;-1.80;99.90;;;;;;2622117;54;19938;-73
2024/01/11 08:01:45;;;;;;;;;;;-1.90;99.90;;;;;;2621314;47;19942;-74
2024/01/11 08:04:14;;;;;;;;;;;-1.80;99.90;;;;;;2621148;52;19943;-72
2024/01/11 08:06:44;;;;;;;;;;;-1.80;99.90;;;;;;2622560;47;19974;-72
2024/01/11 08:09:14;;;;;;;;;;;-1.80;99.90;;;;;;2621129;54;19947;-74
2024/01/11 08:11:44;;;;;;;;;;;-1.70;99.90;;;;;;2624840;54;19938;-74
2024/01/11 08:14:22;;;;;;;;;;;-1.70;99.90;;;;;;2623740;54;19954;-73
2024/01/11 08:16:53;;;;;;;;;;;-1.70;99.90;;;;;;2619125;54;19943;-72
2024/01/11 08:19:23;;;;;;;;;;;-1.60;99.90;;;;;;2619541;54;19950;-73
2024/01/11 08:21:56;;;;;;;;;;;-1.60;99.90;;;;;;2618787;47;19993;-73
2024/01/11 08:24:26;;;;;;;;;;;-1.60;99.90;;;;;;2619730;39;20336;-73
2024/01/11 08:26:55;;;;;;;;;;;-1.60;99.90;;;;;;2620133;54;19947;-75
2024/01/11 08:29:28;;;;;;;;;;;-1.60;99.90;;;;;;2620480;47;19951;-74
2024/01/11 08:31:58;;;;;;;;;;;-1.50;99.90;;;;;;2620413;47;19962;-74
2024/01/11 08:34:28;;;;;;;;;;;-1.40;99.90;;;;;;2620209;47;20037;-74
2024/01/11 08:36:58;;;;;;;;;;;-1.40;99.90;;;;;;2619935;54;19951;-74
2024/01/11 08:39:28;;;;;;;;;;;-1.40;99.90;;;;;;2619546;46;19954;-75
2024/01/11 08:41:57;;;;;;;;;;;-1.40;99.90;;;;;;2620485;47;19938;-73
2024/01/11 08:44:30;;;;;;;;;;;-1.30;99.90;;;;;;2618576;54;19947;-72
2024/01/11 08:47:00;;;;;;;;;;;-1.30;99.90;;;;;;2620229;47;20023;-74
2024/01/11 08:49:29;;;;;;;;;;;-1.20;99.90;;;;;;2620631;54;19946;-74
2024/01/11 08:51:59;;;;;;;;;;;-1.20;99.90;;;;;;2623193;54;20485;-74
2024/01/11 08:54:29;;;;;;;;;;;-1.20;99.90;;;;;;2622088;47;19955;-73
2024/01/11 08:56:59;;;;;;;;;;;-1.10;99.90;;;;;;2621457;46;19978;-74
2024/01/11 08:59:31;;;;;;;;;;;-1.10;99.90;;;;;;2620973;54;19946;-71
2024/01/11 09:02:01;;;;;;;;;;;-1.10;99.90;;;;;;2619222;54;19939;-74
2024/01/11 09:04:44;;;;;;;;;;;-1.10;99.90;;;;;;2620630;54;20010;-72
2024/01/11 09:07:15;;;;;;;;;;;-1.00;99.90;;;;;;2620498;47;20445;-73
2024/01/11 09:09:45;;;;;;;;;;;-1.00;99.90;;;;;;2620437;54;19951;-73
2024/01/11 09:12:25;;;;;;;;;;;-0.90;99.90;;;;;;2620224;54;19946;-73
2024/01/11 09:14:57;;;;;;;;;;;-0.90;99.90;;;;;;2621039;54;19946;-74
2024/01/11 09:17:27;;;;;;;;;;;-0.90;99.90;;;;;;2620219;54;20457;-73
2024/01/11 09:19:56;;;;;;;;;;;-0.80;99.90;;;;;;2620962;54;19946;-73
2024/01/11 09:22:26;;;;;;;;;;;-0.80;99.90;;;;;;2620916;47;20481;-73
2024/01/11 09:24:57;;;;;;;;;;;-0.70;99.90;;;;;;2620787;54;20086;-74
2024/01/11 09:27:27;;;;;;;;;;;-0.70;99.90;;;;;;2620937;54;19951;-73
2024/01/11 09:30:01;;;;;;;;;;;-0.70;99.90;;;;;;2621818;47;19945;-73
2024/01/11 09:32:33;;;;;;;;;;;-0.60;99.90;;;;;;2622553;31;20455;-74
2024/01/11 09:35:04;;;;;;;;;;;-0.60;99.90;;;;;;2622915;47;19938;-73
2024/01/11 09:37:34;;;;;;;;;;;-0.50;99.90;;;;;;2622216;54;19954;-75
2024/01/11 09:40:08;;;;;;;;;;;-0.50;99.90;;;;;;2624321;54;19946;-73
2024/01/11 09:42:38;;;;;;;;;;;-0.50;99.90;;;;;;2627067;47;19953;-74
2024/01/11 09:45:12;;;;;;;;;;;-0.50;99.90;;;;;;2622101;46;19954;-73
2024/01/11 09:47:42;;;;;;;;;;;-0.50;99.90;;;;;;2619750;54;19994;-73
2024/01/11 09:50:17;;;;;;;;;;;-0.40;99.90;;;;;;2618465;46;19948;-73
2024/01/11 09:52:48;;;;;;;;;;;-0.40;99.90;;;;;;2621629;39;20376;-74
2024/01/11 09:55:19;;;;;;;;;;;-0.40;99.90;;;;;;2620071;47;19950;-73
2024/01/11 09:57:49;;;;;;;;;;;-0.30;99.90;;;;;;2620483;54;19975;-73
2024/01/11 10:00:24;;;;;;;;;;;-0.30;99.90;;;;;;2620728;54;19942;-73
2024/01/11 10:02:55;;;;;;;;;;;-0.20;99.90;;;;;;2620840;47;19955;-73
2024/01/11 10:05:25;;;;;;;;;;;-0.20;99.90;;;;;;2619433;47;19938;-73
2024/01/11 10:07:55;;;;;;;;;;;-0.20;99.90;;;;;;2620150;54;19947;-72
2024/01/11 10:10:25;;;;;;;;;;;-0.20;99.90;;;;;;2621163;54;19947;-73
2024/01/11 10:12:55;;;;;;;;;;;-0.10;99.90;;;;;;2621477;47;19957;-73
2024/01/11 10:15:30;;;;;;;;;;;-0.10;99.90;;;;;;2620907;54;19990;-72
2024/01/11 10:18:00;;;;;;;;;;;-0.10;99.90;;;;;;2621642;47;19951;-73
2024/01/11 10:20:32;;;;;;;;;;;0.00;99.90;;;;;;2622059;54;20010;-73
2024/01/11 10:23:02;;;;;;;;;;;0.00;99.90;;;;;;2623561;47;19953;-73
2024/01/11 10:25:32;;;;;;;;;;;0.10;99.90;;;;;;2620336;47;19953;-74
2024/01/11 10:28:01;;;;;;;;;;;0.10;99.90;;;;;;2620825;54;20493;-73
2024/01/11 10:30:35;;;;;;;;;;;0.20;99.90;;;;;;2619945;54;19946;-73
2024/01/11 10:33:05;;;;;;;;;;;0.40;99.90;;;;;;2619611;54;19945;-74
2024/01/11 10:35:35;;;;;;;;;;;0.30;99.90;;;;;;2618884;47;20045;-73
2024/01/11 10:38:08;;;;;;;;;;;0.30;99.90;;;;;;2618859;47;19946;-72
2024/01/11 10:40:38;;;;;;;;;;;0.30;99.90;;;;;;2618580;54;20031;-73
2024/01/11 10:43:11;;;;;;;;;;;0.40;99.90;;;;;;2618579;54;19953;-74
2024/01/11 10:45:44;;;;;;;;;;;0.50;99.90;;;;;;2619705;47;19938;-74
2024/01/11 10:48:15;;;;;;;;;;;0.60;99.90;;;;;;2618853;54;19946;-73
2024/01/11 10:50:46;;;;;;;;;;;0.80;99.90;;;;;;2619391;54;19958;-73
2024/01/11 10:53:24;;;;;;;;;;;0.90;99.90;;;;;;2619920;54;19942;-73
2024/01/11 10:55:54;;;;;;;;;;;1.00;99.90;;;;;;2619077;47;19990;-73
2024/01/11 10:58:25;;;;;;;;;;;1.10;99.90;;;;;;2620623;39;20368;-74
2024/01/11 11:00:59;;;;;;;;;;;1.20;99.90;;;;;;2621327;54;19952;-74
2024/01/11 11:03:29;;;;;;;;;;;1.40;99.90;;;;;;2620850;54;19958;-74
2024/01/11 11:05:59;;;;;;;;;;;1.50;99.90;;;;;;2619501;54;19939;-75
2024/01/11 11:08:30;;;;;;;;;;;1.60;99.90;;;;;;2624834;47;20492;-72
2024/01/11 11:11:00;;;;;;;;;;;1.70;99.90;;;;;;2623508;54;19939;-73
2024/01/11 11:13:30;;;;;;;;;;;1.90;99.90;;;;;;2618213;54;19954;-73
2024/01/11 11:16:03;;;;;;;;;;;2.00;99.90;;;;;;2616558;47;19946;-73
2024/01/11 11:18:34;;;;;;;;;;;2.00;99.90;;;;;;2616417;47;20513;-74
2024/01/11 11:21:09;;;;;;;;;;;2.20;99.90;;;;;;2616774;54;19938;-74
2024/01/11 11:23:39;;;;;;;;;;;2.20;99.90;;;;;;2616157;47;19946;-76
2024/01/11 11:26:17;;;;;;;;;;;2.40;99.90;;;;;;2617058;47;20008;-77
2024/01/11 11:28:48;;;;;;;;;;;2.50;99.90;;;;;;2617209;48;19946;-76
2024/01/11 11:31:36;;;;;;;;;;;2.40;99.90;;;;;;2617658;47;19946;-76
2024/01/11 11:34:06;;;;;;;;;;;2.40;99.90;;;;;;2618373;47;19977;-76
2024/01/11 11:36:36;;;;;;;;;;;2.40;99.90;;;;;;2619640;47;19953;-76
2024/01/11 11:39:07;;;;;;;;;;;2.40;99.90;;;;;;2618642;46;19980;-74
2024/01/11 11:41:38;;;;;;;;;;;2.40;99.90;;;;;;2617648;54;19946;-73
2024/01/11 11:44:08;;;;;;;;;;;2.30;99.90;;;;;;2618513;54;19951;-73
2024/01/11 11:46:40;;;;;;;;;;;2.30;99.90;;;;;;2617740;47;19939;-73
2024/01/11 11:49:10;;;;;;;;;;;2.30;99.90;;;;;;2618671;50;19938;-75
2024/01/11 11:51:42;;;;;;;;;;;2.30;99.90;;;;;;2619620;54;19938;-77
2024/01/11 11:54:14;;;;;;;;;;;2.20;99.90;;;;;;2618424;47;19957;-78
2024/01/11 18:00:09;;;;;;;;;;;2.00;99.90;;;;;;2606903;54;19946;-71
2024/01/11 18:02:38;;;;;;;;;;;1.90;99.90;;;;;;2591941;54;20449;-72
2024/01/11 18:05:08;;;;;;;;;;;2.00;99.90;;;;;;2596581;54;20643;-71
2024/01/11 18:07:39;;;;;;;;;;;2.00;99.90;;;;;;2597758;54;19958;-71
2024/01/11 18:10:10;;;;;;;;;;;2.00;99.90;;;;;;2598373;47;20549;-70
2024/01/11 18:12:41;;;;;;;;;;;2.00;99.90;;;;;;2596242;54;20578;-71
2024/01/11 18:15:13;;;;;;;;;;;2.10;99.90;;;;;;2598052;39;20418;-70
2024/01/11 18:17:43;;;;;;;;;;;2.10;99.90;;;;;;2595847;47;20430;-70
2024/01/11 18:20:13;;;;;;;;;;;2.10;99.90;;;;;;2597289;54;19951;-71
2024/01/11 18:22:43;;;;;;;;;;;2.40;99.90;;;;;;2600152;54;20009;-69
2024/01/11 18:25:13;;;;;;;;;;;2.10;99.90;;;;;;2603346;54;19951;-70
2024/01/11 18:27:43;;;;;;;;;;;2.00;99.90;;;;;;2598319;54;19955;-70
2024/01/11 18:30:16;;;;;;;;;;;2.00;99.90;;;;;;2596816;46;19954;-71
2024/01/11 18:32:46;;;;;;;;;;;2.00;99.90;;;;;;2595872;54;19951;-71
2024/01/11 18:35:16;;;;;;;;;;;2.00;99.90;;;;;;2597817;54;19946;-71
2024/01/11 18:37:47;;;;;;;;;;;2.00;99.90;;;;;;2598195;54;19950;-71
2024/01/11 18:40:17;;;;;;;;;;;2.00;99.90;;;;;;2597363;54;19950;-69
2024/01/11 18:42:47;;;;;;;;;;;2.00;99.90;;;;;;2598296;54;19947;-68
2024/01/11 18:45:20;;;;;;;;;;;2.00;99.90;;;;;;2600183;54;20454;-72
2024/01/11 18:47:50;;;;;;;;;;;2.00;99.90;;;;;;2598517;39;20371;-71
2024/01/11 18:50:20;;;;;;;;;;;1.90;99.90;;;;;;2598946;54;19990;-72
2024/01/11 18:52:50;;;;;;;;;;;1.90;99.90;;;;;;2597370;54;19950;-71
2024/01/11 18:55:20;;;;;;;;;;;1.90;99.90;;;;;;2598488;47;19946;-71
2024/01/11 18:57:50;;;;;;;;;;;1.90;99.90;;;;;;2596807;47;19979;-72
2024/01/11 19:00:22;;;;;;;;;;;1.90;99.90;;;;;;2597503;54;20036;-71
2024/01/11 19:02:52;;;;;;;;;;;1.90;99.90;;;;;;2599805;54;19950;-69
2024/01/11 19:05:23;;;;;;;;;;;1.90;99.90;;;;;;2605364;54;19955;-71
2024/01/11 19:07:55;;;;;;;;;;;1.80;99.90;;;;;;2594933;54;19958;-72
2024/01/11 19:10:25;;;;;;;;;;;1.90;99.90;;;;;;2598762;54;19978;-71
2024/01/11 19:12:57;;;;;;;;;;;1.90;99.90;;;;;;2596681;54;19959;-69
2024/01/11 19:15:29;;;;;;;;;;;1.90;99.90;;;;;;2596411;54;19947;-69
2024/01/11 19:17:58;;;;;;;;;;;1.90;99.90;;;;;;2597912;54;19977;-74
2024/01/11 19:20:28;;;;;;;;;;;1.90;99.90;;;;;;2599302;47;19985;-71
2024/01/11 19:22:58;;;;;;;;;;;1.90;99.90;;;;;;2598258;39;20258;-74
2024/01/11 19:25:31;;;;;;;;;;;1.60;99.90;;;;;;2601421;54;19946;-73
2024/01/11 19:28:01;;;;;;;;;;;1.80;99.90;;;;;;2599366;47;20554;-75
2024/01/11 19:30:34;;;;;;;;;;;1.80;99.90;;;;;;2598847;47;20465;-74
2024/01/11 19:33:05;;;;;;;;;;;1.70;99.90;;;;;;2598071;47;19946;-73
2024/01/11 19:35:35;;;;;;;;;;;1.80;99.90;;;;;;2599028;47;20514;-73
2024/01/11 19:38:05;;;;;;;;;;;1.70;99.90;;;;;;2599543;47;21001;-73
2024/01/11 19:40:35;;;;;;;;;;;1.70;99.90;;;;;;2600493;47;19947;-72
2024/01/11 19:43:05;;;;;;;;;;;1.70;99.90;;;;;;2600904;54;19985;-75
2024/01/11 19:45:38;;;;;;;;;;;1.70;99.90;;;;;;2598499;54;20485;-74
2024/01/11 19:48:08;;;;;;;;;;;1.60;99.90;;;;;;2601183;47;19951;-73
2024/01/11 19:50:38;;;;;;;;;;;1.60;99.90;;;;;;2601241;47;19950;-73
2024/01/11 19:53:10;;;;;;;;;;;1.50;99.90;;;;;;2600155;47;20030;-72
2024/01/11 19:55:40;;;;;;;;;;;1.50;99.90;;;;;;2600562;47;19966;-75
2024/01/11 19:58:10;;;;;;;;;;;1.40;99.90;;;;;;2599929;47;19951;-71
2024/01/11 20:00:43;;;;;;;;;;;1.40;99.90;;;;;;2596911;54;19957;-71
2024/01/11 20:03:13;;;;;;;;;;;1.30;99.90;;;;;;2598433;54;19955;-72
2024/01/11 20:05:43;;;;;;;;;;;1.30;99.90;;;;;;2599618;54;20746;-73
2024/01/11 20:08:13;;;;;;;;;;;1.30;99.90;;;;;;2600025;54;19995;-72
2024/01/11 20:10:44;;;;;;;;;;;1.20;99.90;;;;;;2597937;47;19950;-72
2024/01/11 20:13:14;;;;;;;;;;;1.20;99.90;;;;;;2598846;54;19935;-71
2024/01/11 20:15:46;;;;;;;;;;;1.30;99.90;;;;;;2598621;54;19954;-72
2024/01/11 20:18:16;;;;;;;;;;;1.30;99.90;;;;;;2599903;54;19954;-71
2024/01/11 20:20:46;;;;;;;;;;;1.20;99.90;;;;;;2596285;47;20033;-72
2024/01/11 20:23:16;;;;;;;;;;;1.30;99.90;;;;;;2599148;47;19954;-75
2024/01/11 20:25:48;;;;;;;;;;;1.30;99.90;;;;;;2597547;47;19950;-73
2024/01/11 20:28:18;;;;;;;;;;;1.30;99.90;;;;;;2603799;54;19969;-73
2024/01/11 20:31:01;;;;;;;;;;;1.20;99.90;;;;;;2603532;47;19962;-74
2024/01/11 20:33:31;;;;;;;;;;;1.90;99.90;;;;;;2606391;47;19950;-72
2024/01/11 20:36:02;;;;;;;;;;;1.20;99.90;;;;;;2608375;39;20058;-71
2024/01/11 20:38:35;;;;;;;;;;;1.10;99.90;;;;;;2608621;47;19962;-73
2024/01/11 20:41:03;;;;;;;;;;;1.10;99.90;;;;;;2608554;47;20065;-71
2024/01/11 20:43:33;;;;;;;;;;;1.10;99.90;;;;;;2607969;54;19954;-70
2024/01/11 20:46:06;;;;;;;;;;;1.30;99.90;;;;;;2600328;47;19955;-71